sensor_id;sensor_type;location;lat;lon;timestamp;P1;durP1;ratioP1;P2;durP2;ratioP2
29812;SDS011;16707;48.106;11.548;2023-05-10T00:01:45;1.25;;;1.10;;
29812;SDS011;16707;48.106;11.548;2023-05-10T00:04:15;1.30;;;1.10;;
29812;SDS011;16707;48.106;11.548;2023-05-10T00:06:42;2.42;;;1.08;;
29812;SDS011;16707;48.106;11.548;2023-05-10T00:09:10;1.35;;;1.00;;
29812;SDS011;16707;48.106;11.548;2023-05-10T00:11:49;1.85;;;1.05;;
29812;SDS011;16707;48.106;11.548;2023-05-10T00:14:16;0.98;;;0.95;;
29812;SDS011;16707;48.106;11.548;2023-05-10T00:17:06;1.40;;;1.15;;
29812;SDS011;16707;48.106;11.548;2023-05-10T00:19:41;1.80;;;1.20;;
29812;SDS011;16707;48.106;11.548;2023-05-10T00:22:13;2.22;;;1.15;;
29812;SDS011;16707;48.106;11.548;2023-05-10T00:24:43;1.67;;;1.08;;
29812;SDS011;16707;48.106;11.548;2023-05-10T00:27:14;2.67;;;1.20;;
29812;SDS011;16707;48.106;11.548;2023-05-10T00:29:44;1.33;;;1.00;;
29812;SDS011;16707;48.106;11.548;2023-05-10T00:32:19;1.92;;;0.95;;
29812;SDS011;16707;48.106;11.548;2023-05-10T00:34:49;1.70;;;1.10;;
29812;SDS011;16707;48.106;11.548;2023-05-10T00:37:19;1.40;;;1.05;;
29812;SDS011;16707;48.106;11.548;2023-05-10T00:39:50;1.77;;;1.00;;
29812;SDS011;16707;48.106;11.548;2023-05-10T00:42:20;1.58;;;1.10;;
29812;SDS011;16707;48.106;11.548;2023-05-10T00:44:56;0.85;;;0.80;;
29812;SDS011;16707;48.106;11.548;2023-05-10T00:47:30;1.30;;;0.90;;
29812;SDS011;16707;48.106;11.548;2023-05-10T00:50:07;0.80;;;0.55;;
29812;SDS011;16707;48.106;11.548;2023-05-10T00:52:44;0.80;;;0.80;;
29812;SDS011;16707;48.106;11.548;2023-05-10T00:55:21;1.75;;;1.17;;
29812;SDS011;16707;48.106;11.548;2023-05-10T00:58:08;1.08;;;0.98;;
29812;SDS011;16707;48.106;11.548;2023-05-10T01:00:43;1.13;;;0.98;;
29812;SDS011;16707;48.106;11.548;2023-05-10T01:03:22;0.90;;;0.70;;
29812;SDS011;16707;48.106;11.548;2023-05-10T01:05:52;2.03;;;0.95;;
29812;SDS011;16707;48.106;11.548;2023-05-10T01:08:26;1.00;;;0.90;;
29812;SDS011;16707;48.106;11.548;2023-05-10T01:10:53;1.00;;;0.70;;
29812;SDS011;16707;48.106;11.548;2023-05-10T01:13:29;1.00;;;0.90;;
29812;SDS011;16707;48.106;11.548;2023-05-10T01:16:20;0.70;;;0.70;;
29812;SDS011;16707;48.106;11.548;2023-05-10T01:18:51;1.38;;;0.85;;
29812;SDS011;16707;48.106;11.548;2023-05-10T01:21:23;1.38;;;0.85;;
29812;SDS011;16707;48.106;11.548;2023-05-10T01:27:01;0.70;;;0.70;;
29812;SDS011;16707;48.106;11.548;2023-05-10T01:32:58;0.50;;;0.50;;
29812;SDS011;16707;48.106;11.548;2023-05-10T01:35:32;0.60;;;0.60;;
29812;SDS011;16707;48.106;11.548;2023-05-10T01:38:04;0.70;;;0.70;;
29812;SDS011;16707;48.106;11.548;2023-05-10T01:43:17;0.70;;;0.70;;
29812;SDS011;16707;48.106;11.548;2023-05-10T01:46:16;0.68;;;0.57;;
29812;SDS011;16707;48.106;11.548;2023-05-10T01:49:00;0.90;;;0.77;;
29812;SDS011;16707;48.106;11.548;2023-05-10T01:51:30;1.42;;;0.68;;
29812;SDS011;16707;48.106;11.548;2023-05-10T01:54:07;0.70;;;0.70;;
29812;SDS011;16707;48.106;11.548;2023-05-10T01:56:41;0.70;;;0.68;;
29812;SDS011;16707;48.106;11.548;2023-05-10T01:59:17;2.00;;;0.65;;
29812;SDS011;16707;48.106;11.548;2023-05-10T02:02:01;0.95;;;0.60;;
29812;SDS011;16707;48.106;11.548;2023-05-10T02:04:38;1.45;;;0.50;;
29812;SDS011;16707;48.106;11.548;2023-05-10T02:07:12;0.80;;;0.60;;
29812;SDS011;16707;48.106;11.548;2023-05-10T02:09:45;0.85;;;0.70;;
29812;SDS011;16707;48.106;11.548;2023-05-10T02:12:14;0.50;;;0.50;;
29812;SDS011;16707;48.106;11.548;2023-05-10T02:14:48;1.40;;;0.70;;
29812;SDS011;16707;48.106;11.548;2023-05-10T02:17:26;0.80;;;0.77;;
29812;SDS011;16707;48.106;11.548;2023-05-10T02:20:01;0.77;;;0.73;;
29812;SDS011;16707;48.106;11.548;2023-05-10T02:22:35;0.75;;;0.60;;
29812;SDS011;16707;48.106;11.548;2023-05-10T02:25:15;0.77;;;0.63;;
29812;SDS011;16707;48.106;11.548;2023-05-10T02:27:54;0.63;;;0.60;;
29812;SDS011;16707;48.106;11.548;2023-05-10T02:30:43;1.13;;;0.60;;
29812;SDS011;16707;48.106;11.548;2023-05-10T02:33:28;1.20;;;0.70;;
29812;SDS011;16707;48.106;11.548;2023-05-10T02:36:09;1.05;;;0.95;;
29812;SDS011;16707;48.106;11.548;2023-05-10T02:38:37;0.50;;;0.50;;
29812;SDS011;16707;48.106;11.548;2023-05-10T02:41:08;1.15;;;0.73;;
29812;SDS011;16707;48.106;11.548;2023-05-10T02:43:41;1.25;;;0.85;;
29812;SDS011;16707;48.106;11.548;2023-05-10T02:46:17;0.80;;;0.80;;
29812;SDS011;16707;48.106;11.548;2023-05-10T02:48:59;0.80;;;0.80;;
29812;SDS011;16707;48.106;11.548;2023-05-10T02:51:43;1.67;;;1.20;;
29812;SDS011;16707;48.106;11.548;2023-05-10T02:54:18;0.98;;;0.73;;
29812;SDS011;16707;48.106;11.548;2023-05-10T02:56:59;2.42;;;1.00;;
29812;SDS011;16707;48.106;11.548;2023-05-10T02:59:31;1.43;;;0.87;;
29812;SDS011;16707;48.106;11.548;2023-05-10T03:02:05;2.22;;;0.90;;
29812;SDS011;16707;48.106;11.548;2023-05-10T03:04:35;0.68;;;0.68;;
29812;SDS011;16707;48.106;11.548;2023-05-10T03:07:17;2.17;;;0.77;;
29812;SDS011;16707;48.106;11.548;2023-05-10T03:09:46;0.80;;;0.70;;
29812;SDS011;16707;48.106;11.548;2023-05-10T03:12:15;0.65;;;0.65;;
29812;SDS011;16707;48.106;11.548;2023-05-10T03:15:00;0.60;;;0.60;;
29812;SDS011;16707;48.106;11.548;2023-05-10T03:17:52;1.00;;;0.80;;
29812;SDS011;16707;48.106;11.548;2023-05-10T03:20:24;0.75;;;0.70;;
29812;SDS011;16707;48.106;11.548;2023-05-10T03:23:00;1.10;;;0.60;;
29812;SDS011;16707;48.106;11.548;2023-05-10T03:25:31;0.85;;;0.52;;
29812;SDS011;16707;48.106;11.548;2023-05-10T03:28:00;1.60;;;0.65;;
29812;SDS011;16707;48.106;11.548;2023-05-10T03:30:35;0.95;;;0.60;;
29812;SDS011;16707;48.106;11.548;2023-05-10T03:33:04;0.80;;;0.77;;
29812;SDS011;16707;48.106;11.548;2023-05-10T03:35:32;0.60;;;0.60;;
29812;SDS011;16707;48.106;11.548;2023-05-10T03:38:00;0.82;;;0.50;;
29812;SDS011;16707;48.106;11.548;2023-05-10T03:40:33;0.90;;;0.63;;
29812;SDS011;16707;48.106;11.548;2023-05-10T03:45:48;0.50;;;0.50;;
29812;SDS011;16707;48.106;11.548;2023-05-10T03:48:26;1.25;;;0.50;;
29812;SDS011;16707;48.106;11.548;2023-05-10T03:50:53;0.52;;;0.52;;
29812;SDS011;16707;48.106;11.548;2023-05-10T03:53:29;0.60;;;0.57;;
29812;SDS011;16707;48.106;11.548;2023-05-10T03:56:11;0.40;;;0.40;;
29812;SDS011;16707;48.106;11.548;2023-05-10T03:58:43;0.98;;;0.60;;
29812;SDS011;16707;48.106;11.548;2023-05-10T04:01:22;0.55;;;0.50;;
29812;SDS011;16707;48.106;11.548;2023-05-10T04:03:53;1.33;;;0.50;;
29812;SDS011;16707;48.106;11.548;2023-05-10T04:06:22;0.30;;;0.30;;
29812;SDS011;16707;48.106;11.548;2023-05-10T04:08:53;0.38;;;0.38;;
29812;SDS011;16707;48.106;11.548;2023-05-10T04:11:21;0.85;;;0.57;;
29812;SDS011;16707;48.106;11.548;2023-05-10T04:14:01;0.57;;;0.57;;
29812;SDS011;16707;48.106;11.548;2023-05-10T04:16:30;2.17;;;0.60;;
29812;SDS011;16707;48.106;11.548;2023-05-10T04:18:58;0.85;;;0.40;;
29812;SDS011;16707;48.106;11.548;2023-05-10T04:21:27;0.35;;;0.30;;
29812;SDS011;16707;48.106;11.548;2023-05-10T04:23:57;1.08;;;0.77;;
29812;SDS011;16707;48.106;11.548;2023-05-10T04:26:29;0.60;;;0.60;;
29812;SDS011;16707;48.106;11.548;2023-05-10T04:29:12;0.55;;;0.50;;
29812;SDS011;16707;48.106;11.548;2023-05-10T04:31:42;0.55;;;0.40;;
29812;SDS011;16707;48.106;11.548;2023-05-10T04:34:13;0.43;;;0.43;;
29812;SDS011;16707;48.106;11.548;2023-05-10T04:36:48;0.75;;;0.60;;
29812;SDS011;16707;48.106;11.548;2023-05-10T04:39:26;0.52;;;0.45;;
29812;SDS011;16707;48.106;11.548;2023-05-10T04:41:57;0.55;;;0.47;;
29812;SDS011;16707;48.106;11.548;2023-05-10T04:44:27;0.75;;;0.40;;
29812;SDS011;16707;48.106;11.548;2023-05-10T04:46:58;0.80;;;0.60;;
29812;SDS011;16707;48.106;11.548;2023-05-10T04:49:27;0.55;;;0.40;;
29812;SDS011;16707;48.106;11.548;2023-05-10T04:51:59;0.57;;;0.57;;
29812;SDS011;16707;48.106;11.548;2023-05-10T04:54:30;1.05;;;0.60;;
29812;SDS011;16707;48.106;11.548;2023-05-10T04:57:09;0.40;;;0.40;;
29812;SDS011;16707;48.106;11.548;2023-05-10T04:59:40;0.38;;;0.30;;
29812;SDS011;16707;48.106;11.548;2023-05-10T05:02:08;1.52;;;0.43;;
29812;SDS011;16707;48.106;11.548;2023-05-10T05:04:37;4.30;;;1.33;;
29812;SDS011;16707;48.106;11.548;2023-05-10T05:07:10;2.22;;;1.23;;
29812;SDS011;16707;48.106;11.548;2023-05-10T05:09:38;3.10;;;0.80;;
29812;SDS011;16707;48.106;11.548;2023-05-10T05:12:06;0.95;;;0.65;;
29812;SDS011;16707;48.106;11.548;2023-05-10T05:14:39;1.85;;;0.90;;
29812;SDS011;16707;48.106;11.548;2023-05-10T05:17:10;0.68;;;0.50;;
29812;SDS011;16707;48.106;11.548;2023-05-10T05:19:37;0.30;;;0.30;;
29812;SDS011;16707;48.106;11.548;2023-05-10T05:22:14;1.08;;;0.70;;
29812;SDS011;16707;48.106;11.548;2023-05-10T05:24:43;0.73;;;0.35;;
29812;SDS011;16707;48.106;11.548;2023-05-10T05:27:30;0.50;;;0.40;;
29812;SDS011;16707;48.106;11.548;2023-05-10T05:30:01;1.30;;;0.40;;
29812;SDS011;16707;48.106;11.548;2023-05-10T05:32:31;0.20;;;0.20;;
29812;SDS011;16707;48.106;11.548;2023-05-10T05:34:59;0.50;;;0.38;;
29812;SDS011;16707;48.106;11.548;2023-05-10T05:37:35;0.47;;;0.35;;
29812;SDS011;16707;48.106;11.548;2023-05-10T05:40:04;2.33;;;0.50;;
29812;SDS011;16707;48.106;11.548;2023-05-10T05:42:35;0.65;;;0.30;;
29812;SDS011;16707;48.106;11.548;2023-05-10T05:45:10;0.45;;;0.32;;
29812;SDS011;16707;48.106;11.548;2023-05-10T05:47:41;0.30;;;0.30;;
29812;SDS011;16707;48.106;11.548;2023-05-10T05:50:09;0.30;;;0.30;;
29812;SDS011;16707;48.106;11.548;2023-05-10T05:52:39;1.88;;;1.42;;
29812;SDS011;16707;48.106;11.548;2023-05-10T05:55:13;1.35;;;0.60;;
29812;SDS011;16707;48.106;11.548;2023-05-10T05:57:49;0.52;;;0.38;;
29812;SDS011;16707;48.106;11.548;2023-05-10T06:00:19;0.75;;;0.50;;
29812;SDS011;16707;48.106;11.548;2023-05-10T06:02:48;0.60;;;0.47;;
29812;SDS011;16707;48.106;11.548;2023-05-10T06:05:18;1.17;;;0.60;;
29812;SDS011;16707;48.106;11.548;2023-05-10T06:07:46;0.40;;;0.40;;
29812;SDS011;16707;48.106;11.548;2023-05-10T06:10:20;1.08;;;0.70;;
29812;SDS011;16707;48.106;11.548;2023-05-10T06:12:50;1.02;;;0.60;;
29812;SDS011;16707;48.106;11.548;2023-05-10T06:15:20;0.98;;;0.55;;
29812;SDS011;16707;48.106;11.548;2023-05-10T06:17:54;1.20;;;0.57;;
29812;SDS011;16707;48.106;11.548;2023-05-10T06:20:26;1.60;;;0.60;;
29812;SDS011;16707;48.106;11.548;2023-05-10T06:22:53;0.75;;;0.70;;
29812;SDS011;16707;48.106;11.548;2023-05-10T06:25:21;1.35;;;0.55;;
29812;SDS011;16707;48.106;11.548;2023-05-10T06:27:48;0.90;;;0.70;;
29812;SDS011;16707;48.106;11.548;2023-05-10T06:30:20;0.82;;;0.57;;
29812;SDS011;16707;48.106;11.548;2023-05-10T06:32:56;0.77;;;0.57;;
29812;SDS011;16707;48.106;11.548;2023-05-10T06:35:23;0.90;;;0.70;;
29812;SDS011;16707;48.106;11.548;2023-05-10T06:37:55;1.05;;;0.80;;
29812;SDS011;16707;48.106;11.548;2023-05-10T06:40:27;0.75;;;0.70;;
29812;SDS011;16707;48.106;11.548;2023-05-10T06:42:57;2.00;;;0.70;;
29812;SDS011;16707;48.106;11.548;2023-05-10T06:45:24;0.98;;;0.65;;
29812;SDS011;16707;48.106;11.548;2023-05-10T06:47:57;0.80;;;0.70;;
29812;SDS011;16707;48.106;11.548;2023-05-10T06:50:24;1.25;;;0.50;;
29812;SDS011;16707;48.106;11.548;2023-05-10T06:52:53;2.25;;;1.00;;
29812;SDS011;16707;48.106;11.548;2023-05-10T06:55:23;1.20;;;0.70;;
29812;SDS011;16707;48.106;11.548;2023-05-10T06:57:54;0.63;;;0.63;;
29812;SDS011;16707;48.106;11.548;2023-05-10T07:00:21;0.80;;;0.60;;
29812;SDS011;16707;48.106;11.548;2023-05-10T07:02:54;1.65;;;0.75;;
29812;SDS011;16707;48.106;11.548;2023-05-10T07:05:32;0.80;;;0.70;;
29812;SDS011;16707;48.106;11.548;2023-05-10T07:08:04;2.22;;;1.35;;
29812;SDS011;16707;48.106;11.548;2023-05-10T07:10:33;1.20;;;0.70;;
29812;SDS011;16707;48.106;11.548;2023-05-10T07:13:01;0.95;;;0.80;;
29812;SDS011;16707;48.106;11.548;2023-05-10T07:15:31;2.50;;;0.70;;
29812;SDS011;16707;48.106;11.548;2023-05-10T07:17:58;1.33;;;0.70;;
29812;SDS011;16707;48.106;11.548;2023-05-10T07:20:31;1.10;;;0.93;;
29812;SDS011;16707;48.106;11.548;2023-05-10T07:23:04;0.70;;;0.70;;
29812;SDS011;16707;48.106;11.548;2023-05-10T07:25:31;1.08;;;0.73;;
29812;SDS011;16707;48.106;11.548;2023-05-10T07:28:00;1.08;;;0.93;;
29812;SDS011;16707;48.106;11.548;2023-05-10T07:30:30;1.60;;;0.80;;
29812;SDS011;16707;48.106;11.548;2023-05-10T07:32:57;1.67;;;0.80;;
29812;SDS011;16707;48.106;11.548;2023-05-10T07:35:25;0.88;;;0.70;;
29812;SDS011;16707;48.106;11.548;2023-05-10T07:37:52;1.70;;;0.68;;
29812;SDS011;16707;48.106;11.548;2023-05-10T07:40:24;1.00;;;0.70;;
29812;SDS011;16707;48.106;11.548;2023-05-10T07:42:52;0.90;;;0.68;;
29812;SDS011;16707;48.106;11.548;2023-05-10T07:45:19;0.60;;;0.60;;
29812;SDS011;16707;48.106;11.548;2023-05-10T07:47:46;2.08;;;0.88;;
29812;SDS011;16707;48.106;11.548;2023-05-10T07:50:14;2.13;;;0.85;;
29812;SDS011;16707;48.106;11.548;2023-05-10T07:52:43;0.70;;;0.70;;
29812;SDS011;16707;48.106;11.548;2023-05-10T07:55:10;2.08;;;0.73;;
29812;SDS011;16707;48.106;11.548;2023-05-10T07:57:46;0.90;;;0.55;;
29812;SDS011;16707;48.106;11.548;2023-05-10T08:00:15;0.68;;;0.63;;
29812;SDS011;16707;48.106;11.548;2023-05-10T08:02:44;0.73;;;0.70;;
29812;SDS011;16707;48.106;11.548;2023-05-10T08:05:12;1.88;;;0.88;;
29812;SDS011;16707;48.106;11.548;2023-05-10T08:07:41;1.33;;;0.70;;
29812;SDS011;16707;48.106;11.548;2023-05-10T08:10:09;1.33;;;0.80;;
29812;SDS011;16707;48.106;11.548;2023-05-10T08:12:37;1.35;;;0.77;;
29812;SDS011;16707;48.106;11.548;2023-05-10T08:15:05;1.58;;;0.90;;
29812;SDS011;16707;48.106;11.548;2023-05-10T08:17:42;1.90;;;0.70;;
29812;SDS011;16707;48.106;11.548;2023-05-10T08:20:13;0.75;;;0.70;;
29812;SDS011;16707;48.106;11.548;2023-05-10T08:22:41;2.95;;;1.02;;
29812;SDS011;16707;48.106;11.548;2023-05-10T08:25:09;1.05;;;0.50;;
29812;SDS011;16707;48.106;11.548;2023-05-10T08:27:36;1.25;;;0.80;;
29812;SDS011;16707;48.106;11.548;2023-05-10T08:30:03;0.90;;;0.60;;
29812;SDS011;16707;48.106;11.548;2023-05-10T08:32:31;2.33;;;0.75;;
29812;SDS011;16707;48.106;11.548;2023-05-10T08:35:01;1.35;;;0.73;;
29812;SDS011;16707;48.106;11.548;2023-05-10T08:37:29;1.00;;;0.90;;
29812;SDS011;16707;48.106;11.548;2023-05-10T08:39:59;0.63;;;0.63;;
29812;SDS011;16707;48.106;11.548;2023-05-10T08:42:27;1.02;;;0.88;;
29812;SDS011;16707;48.106;11.548;2023-05-10T08:45:04;2.22;;;0.70;;
29812;SDS011;16707;48.106;11.548;2023-05-10T08:47:36;0.70;;;0.70;;
29812;SDS011;16707;48.106;11.548;2023-05-10T08:50:11;0.93;;;0.70;;
29812;SDS011;16707;48.106;11.548;2023-05-10T08:52:43;0.93;;;0.77;;
29812;SDS011;16707;48.106;11.548;2023-05-10T08:55:14;1.98;;;0.80;;
29812;SDS011;16707;48.106;11.548;2023-05-10T08:57:42;1.30;;;0.73;;
29812;SDS011;16707;48.106;11.548;2023-05-10T09:00:13;1.52;;;1.10;;
29812;SDS011;16707;48.106;11.548;2023-05-10T09:02:41;0.88;;;0.70;;
29812;SDS011;16707;48.106;11.548;2023-05-10T09:05:12;1.25;;;0.80;;
29812;SDS011;16707;48.106;11.548;2023-05-10T09:07:40;0.80;;;0.80;;
29812;SDS011;16707;48.106;11.548;2023-05-10T09:10:08;0.80;;;0.70;;
29812;SDS011;16707;48.106;11.548;2023-05-10T09:12:43;1.23;;;0.90;;
29812;SDS011;16707;48.106;11.548;2023-05-10T09:15:13;0.70;;;0.70;;
29812;SDS011;16707;48.106;11.548;2023-05-10T09:17:48;0.90;;;0.80;;
29812;SDS011;16707;48.106;11.548;2023-05-10T09:20:17;0.63;;;0.60;;
29812;SDS011;16707;48.106;11.548;2023-05-10T09:22:45;1.40;;;0.75;;
29812;SDS011;16707;48.106;11.548;2023-05-10T09:25:14;1.48;;;0.57;;
29812;SDS011;16707;48.106;11.548;2023-05-10T09:27:44;1.25;;;0.60;;
29812;SDS011;16707;48.106;11.548;2023-05-10T09:30:15;0.55;;;0.55;;
29812;SDS011;16707;48.106;11.548;2023-05-10T09:32:47;0.88;;;0.75;;
29812;SDS011;16707;48.106;11.548;2023-05-10T09:35:18;1.27;;;1.17;;
29812;SDS011;16707;48.106;11.548;2023-05-10T09:37:55;1.10;;;1.00;;
29812;SDS011;16707;48.106;11.548;2023-05-10T09:40:27;0.70;;;0.60;;
29812;SDS011;16707;48.106;11.548;2023-05-10T09:43:00;0.65;;;0.65;;
29812;SDS011;16707;48.106;11.548;2023-05-10T09:45:33;1.30;;;0.60;;
29812;SDS011;16707;48.106;11.548;2023-05-10T09:48:08;1.00;;;0.70;;
29812;SDS011;16707;48.106;11.548;2023-05-10T09:50:37;0.65;;;0.63;;
29812;SDS011;16707;48.106;11.548;2023-05-10T09:53:06;0.60;;;0.60;;
29812;SDS011;16707;48.106;11.548;2023-05-10T09:55:42;1.45;;;0.70;;
29812;SDS011;16707;48.106;11.548;2023-05-10T09:58:15;1.52;;;0.70;;
29812;SDS011;16707;48.106;11.548;2023-05-10T10:00:43;1.90;;;0.60;;
29812;SDS011;16707;48.106;11.548;2023-05-10T10:03:13;0.70;;;0.57;;
29812;SDS011;16707;48.106;11.548;2023-05-10T10:05:46;0.93;;;0.52;;
29812;SDS011;16707;48.106;11.548;2023-05-10T10:08:14;0.93;;;0.68;;
29812;SDS011;16707;48.106;11.548;2023-05-10T10:10:44;1.88;;;0.43;;
29812;SDS011;16707;48.106;11.548;2023-05-10T10:13:13;0.60;;;0.60;;
29812;SDS011;16707;48.106;11.548;2023-05-10T10:15:43;0.77;;;0.60;;
29812;SDS011;16707;48.106;11.548;2023-05-10T10:18:12;0.82;;;0.60;;
29812;SDS011;16707;48.106;11.548;2023-05-10T10:20:40;0.90;;;0.90;;
29812;SDS011;16707;48.106;11.548;2023-05-10T10:23:09;1.02;;;0.65;;
29812;SDS011;16707;48.106;11.548;2023-05-10T10:25:39;0.50;;;0.50;;
29812;SDS011;16707;48.106;11.548;2023-05-10T10:28:12;0.45;;;0.45;;
29812;SDS011;16707;48.106;11.548;2023-05-10T10:30:53;1.35;;;0.60;;
29812;SDS011;16707;48.106;11.548;2023-05-10T10:36:23;1.60;;;0.60;;
29812;SDS011;16707;48.106;11.548;2023-05-10T10:39:00;1.17;;;0.73;;
29812;SDS011;16707;48.106;11.548;2023-05-10T10:41:32;1.60;;;0.70;;
29812;SDS011;16707;48.106;11.548;2023-05-10T10:47:23;1.50;;;0.70;;
29812;SDS011;16707;48.106;11.548;2023-05-10T10:50:03;1.02;;;0.65;;
29812;SDS011;16707;48.106;11.548;2023-05-10T10:52:33;0.60;;;0.60;;
29812;SDS011;16707;48.106;11.548;2023-05-10T10:55:09;0.80;;;0.73;;
29812;SDS011;16707;48.106;11.548;2023-05-10T10:57:44;2.40;;;0.80;;
29812;SDS011;16707;48.106;11.548;2023-05-10T11:00:25;2.13;;;1.30;;
29812;SDS011;16707;48.106;11.548;2023-05-10T11:02:58;1.50;;;0.70;;
29812;SDS011;16707;48.106;11.548;2023-05-10T11:05:36;1.35;;;1.10;;
29812;SDS011;16707;48.106;11.548;2023-05-10T11:08:10;2.53;;;1.30;;
29812;SDS011;16707;48.106;11.548;2023-05-10T11:11:01;2.17;;;1.23;;
29812;SDS011;16707;48.106;11.548;2023-05-10T11:13:33;2.60;;;0.73;;
29812;SDS011;16707;48.106;11.548;2023-05-10T11:16:20;1.40;;;1.25;;
29812;SDS011;16707;48.106;11.548;2023-05-10T11:18:52;1.38;;;1.20;;
29812;SDS011;16707;48.106;11.548;2023-05-10T11:21:34;2.40;;;1.15;;
29812;SDS011;16707;48.106;11.548;2023-05-10T11:24:16;2.25;;;1.63;;
29812;SDS011;16707;48.106;11.548;2023-05-10T11:26:53;1.65;;;1.20;;
29812;SDS011;16707;48.106;11.548;2023-05-10T11:29:30;2.22;;;1.10;;
29812;SDS011;16707;48.106;11.548;2023-05-10T11:31:59;1.98;;;1.00;;
29812;SDS011;16707;48.106;11.548;2023-05-10T11:34:29;2.03;;;1.10;;
29812;SDS011;16707;48.106;11.548;2023-05-10T11:37:05;2.78;;;1.50;;
29812;SDS011;16707;48.106;11.548;2023-05-10T11:39:32;2.30;;;1.30;;
29812;SDS011;16707;48.106;11.548;2023-05-10T11:42:01;1.60;;;1.30;;
29812;SDS011;16707;48.106;11.548;2023-05-10T11:44:33;1.45;;;1.33;;
29812;SDS011;16707;48.106;11.548;2023-05-10T11:47:02;3.50;;;1.50;;
29812;SDS011;16707;48.106;11.548;2023-05-10T11:49:32;1.80;;;1.42;;
29812;SDS011;16707;48.106;11.548;2023-05-10T11:52:05;1.90;;;1.20;;
29812;SDS011;16707;48.106;11.548;2023-05-10T11:54:34;1.33;;;1.20;;
29812;SDS011;16707;48.106;11.548;2023-05-10T11:57:02;1.70;;;1.30;;
29812;SDS011;16707;48.106;11.548;2023-05-10T11:59:30;1.35;;;1.10;;
29812;SDS011;16707;48.106;11.548;2023-05-10T12:02:04;2.83;;;0.93;;
29812;SDS011;16707;48.106;11.548;2023-05-10T12:04:34;3.08;;;1.63;;
29812;SDS011;16707;48.106;11.548;2023-05-10T12:07:10;4.03;;;1.30;;
29812;SDS011;16707;48.106;11.548;2023-05-10T12:09:41;1.90;;;1.10;;
29812;SDS011;16707;48.106;11.548;2023-05-10T12:12:11;2.58;;;1.13;;
29812;SDS011;16707;48.106;11.548;2023-05-10T12:14:53;1.08;;;0.98;;
29812;SDS011;16707;48.106;11.548;2023-05-10T12:17:28;1.20;;;1.10;;
29812;SDS011;16707;48.106;11.548;2023-05-10T12:20:12;3.50;;;1.60;;
29812;SDS011;16707;48.106;11.548;2023-05-10T12:22:45;2.90;;;1.70;;
29812;SDS011;16707;48.106;11.548;2023-05-10T12:27:50;1.98;;;1.30;;
29812;SDS011;16707;48.106;11.548;2023-05-10T12:30:21;1.37;;;1.00;;
29812;SDS011;16707;48.106;11.548;2023-05-10T12:32:53;1.83;;;1.00;;
29812;SDS011;16707;48.106;11.548;2023-05-10T12:35:21;1.73;;;0.95;;
29812;SDS011;16707;48.106;11.548;2023-05-10T12:37:49;1.45;;;1.13;;
29812;SDS011;16707;48.106;11.548;2023-05-10T12:40:17;1.58;;;1.08;;
29812;SDS011;16707;48.106;11.548;2023-05-10T12:42:47;3.47;;;1.33;;
29812;SDS011;16707;48.106;11.548;2023-05-10T12:45:20;1.73;;;1.20;;
29812;SDS011;16707;48.106;11.548;2023-05-10T12:47:48;2.22;;;1.10;;
29812;SDS011;16707;48.106;11.548;2023-05-10T12:50:17;1.20;;;1.10;;
29812;SDS011;16707;48.106;11.548;2023-05-10T12:52:47;1.52;;;0.90;;
29812;SDS011;16707;48.106;11.548;2023-05-10T12:55:18;4.22;;;1.80;;
29812;SDS011;16707;48.106;11.548;2023-05-10T12:57:48;2.05;;;1.17;;
29812;SDS011;16707;48.106;11.548;2023-05-10T13:00:25;2.83;;;1.08;;
29812;SDS011;16707;48.106;11.548;2023-05-10T13:02:52;1.52;;;0.90;;
29812;SDS011;16707;48.106;11.548;2023-05-10T13:05:26;1.65;;;1.02;;
29812;SDS011;16707;48.106;11.548;2023-05-10T13:07:59;1.38;;;1.13;;
29812;SDS011;16707;48.106;11.548;2023-05-10T13:10:28;3.25;;;1.10;;
29812;SDS011;16707;48.106;11.548;2023-05-10T13:13:00;1.35;;;1.02;;
29812;SDS011;16707;48.106;11.548;2023-05-10T13:15:28;1.98;;;1.10;;
29812;SDS011;16707;48.106;11.548;2023-05-10T13:18:08;2.25;;;1.40;;
29812;SDS011;16707;48.106;11.548;2023-05-10T13:20:35;2.15;;;1.40;;
29812;SDS011;16707;48.106;11.548;2023-05-10T13:23:02;2.42;;;1.20;;
29812;SDS011;16707;48.106;11.548;2023-05-10T13:25:33;3.95;;;1.30;;
29812;SDS011;16707;48.106;11.548;2023-05-10T13:28:04;1.80;;;1.17;;
29812;SDS011;16707;48.106;11.548;2023-05-10T13:30:31;1.30;;;1.20;;
29812;SDS011;16707;48.106;11.548;2023-05-10T13:33:11;2.33;;;1.17;;
29812;SDS011;16707;48.106;11.548;2023-05-10T13:35:41;2.22;;;1.10;;
29812;SDS011;16707;48.106;11.548;2023-05-10T13:38:10;1.98;;;0.95;;
29812;SDS011;16707;48.106;11.548;2023-05-10T13:40:38;4.97;;;1.20;;
29812;SDS011;16707;48.106;11.548;2023-05-10T13:43:10;1.85;;;1.17;;
29812;SDS011;16707;48.106;11.548;2023-05-10T13:45:37;2.10;;;0.95;;
29812;SDS011;16707;48.106;11.548;2023-05-10T13:48:07;2.70;;;0.98;;
29812;SDS011;16707;48.106;11.548;2023-05-10T13:50:36;1.02;;;0.82;;
29812;SDS011;16707;48.106;11.548;2023-05-10T13:53:04;1.70;;;1.10;;
29812;SDS011;16707;48.106;11.548;2023-05-10T13:55:34;1.67;;;1.00;;
29812;SDS011;16707;48.106;11.548;2023-05-10T13:58:04;1.60;;;1.15;;
29812;SDS011;16707;48.106;11.548;2023-05-10T14:00:32;1.35;;;1.10;;
29812;SDS011;16707;48.106;11.548;2023-05-10T14:02:59;2.28;;;1.00;;
29812;SDS011;16707;48.106;11.548;2023-05-10T14:05:27;2.33;;;1.25;;
29812;SDS011;16707;48.106;11.548;2023-05-10T14:07:54;2.65;;;1.20;;
29812;SDS011;16707;48.106;11.548;2023-05-10T14:10:25;1.23;;;0.93;;
29812;SDS011;16707;48.106;11.548;2023-05-10T14:12:55;1.95;;;1.17;;
29812;SDS011;16707;48.106;11.548;2023-05-10T14:15:25;1.55;;;1.10;;
29812;SDS011;16707;48.106;11.548;2023-05-10T14:17:54;2.85;;;1.65;;
29812;SDS011;16707;48.106;11.548;2023-05-10T14:20:21;1.20;;;1.10;;
29812;SDS011;16707;48.106;11.548;2023-05-10T14:22:48;1.02;;;0.93;;
29812;SDS011;16707;48.106;11.548;2023-05-10T14:25:18;3.22;;;1.30;;
29812;SDS011;16707;48.106;11.548;2023-05-10T14:27:46;1.42;;;1.10;;
29812;SDS011;16707;48.106;11.548;2023-05-10T14:30:19;3.55;;;1.63;;
29812;SDS011;16707;48.106;11.548;2023-05-10T14:32:46;3.72;;;1.65;;
29812;SDS011;16707;48.106;11.548;2023-05-10T14:35:15;2.58;;;1.27;;
29812;SDS011;16707;48.106;11.548;2023-05-10T14:37:45;1.02;;;0.93;;
29812;SDS011;16707;48.106;11.548;2023-05-10T14:40:12;4.53;;;3.20;;
29812;SDS011;16707;48.106;11.548;2023-05-10T14:42:42;1.38;;;0.82;;
29812;SDS011;16707;48.106;11.548;2023-05-10T14:45:12;1.50;;;0.77;;
29812;SDS011;16707;48.106;11.548;2023-05-10T14:47:40;1.85;;;0.90;;
29812;SDS011;16707;48.106;11.548;2023-05-10T14:50:12;1.08;;;0.98;;
29812;SDS011;16707;48.106;11.548;2023-05-10T14:52:40;1.55;;;0.60;;
29812;SDS011;16707;48.106;11.548;2023-05-10T14:55:07;1.20;;;1.10;;
29812;SDS011;16707;48.106;11.548;2023-05-10T14:57:35;1.98;;;1.10;;
29812;SDS011;16707;48.106;11.548;2023-05-10T15:00:06;1.25;;;1.00;;
29812;SDS011;16707;48.106;11.548;2023-05-10T15:02:38;0.98;;;0.82;;
29812;SDS011;16707;48.106;11.548;2023-05-10T15:05:08;2.38;;;1.00;;
29812;SDS011;16707;48.106;11.548;2023-05-10T15:07:43;2.72;;;1.45;;
29812;SDS011;16707;48.106;11.548;2023-05-10T15:10:13;2.08;;;1.42;;
29812;SDS011;16707;48.106;11.548;2023-05-10T15:12:40;3.60;;;2.30;;
29812;SDS011;16707;48.106;11.548;2023-05-10T15:15:07;2.63;;;1.60;;
29812;SDS011;16707;48.106;11.548;2023-05-10T15:17:37;2.40;;;1.15;;
29812;SDS011;16707;48.106;11.548;2023-05-10T15:20:05;1.40;;;1.13;;
29812;SDS011;16707;48.106;11.548;2023-05-10T15:22:35;2.05;;;1.25;;